Time;durP1;ratioP1;P1;durP2;ratioP2;P2;SDS_P1;SDS_P2;PMS_P1;PMS_P2;Temp;Humidity;BMP_temperature;BMP_pressure;BME280_temperature;BME280_humidity;BME280_pressure;Samples;Min_cycle;Max_cycle;Signal;HPM_P1;HPM_P2
2023/09/26 00:02:13;;;;;;;3.72;0.88;;;;;;;17.61;99.31;98991.19;5137554;27;20035;-95
2023/09/26 00:04:39;;;;;;;2.03;1.00;;;;;;;17.70;99.78;99014.06;5137156;27;20039;-95
2023/09/26 00:07:04;;;;;;;2.30;1.83;;;;;;;18.09;98.11;99053.28;5139733;27;20385;-96
2023/09/26 00:09:30;;;;;;;4.95;1.27;;;;;;;18.38;96.95;99086.69;5139257;27;20038;-95
2023/09/26 00:11:57;;;;;;;2.70;1.83;;;;;;;18.37;97.56;99088.53;5138897;27;20034;-95
2023/09/26 00:14:25;;;;;;;1.75;1.10;;;;;;;17.93;98.67;99034.38;5141331;27;20051;-94
2023/09/26 00:16:52;;;;;;;2.05;1.33;;;;;;;18.24;98.91;99099.09;5141075;27;20039;-95
2023/09/26 00:19:18;;;;;;;4.15;1.38;;;;;;;17.69;99.14;99010.47;5140011;27;20042;-94
2023/09/26 00:21:44;;;;;;;3.75;1.38;;;;;;;17.64;100.00;99029.53;5130243;28;20047;-94
2023/09/26 00:24:09;;;;;;;2.13;1.63;;;;;;;17.91;98.86;99039.81;5118312;28;20143;-95
2023/09/26 00:26:35;;;;;;;2.35;1.33;;;;;;;17.62;100.00;99039.50;5118228;28;20488;-94
2023/09/26 00:29:01;;;;;;;2.67;1.25;;;;;;;17.62;100.00;99036.81;5117647;28;20106;-94
2023/09/26 00:31:29;;;;;;;2.13;1.10;;;;;;;17.62;99.80;99014.44;5117141;28;20062;-94
2023/09/26 00:33:54;;;;;;;2.45;1.33;;;;;;;17.58;100.00;99045.97;5105957;28;20511;-95
2023/09/26 00:36:20;;;;;;;2.75;1.00;;;;;;;17.54;100.00;99022.88;5104922;28;20036;-94
2023/09/26 00:38:46;;;;;;;3.78;1.30;;;;;;;17.52;100.00;99015.84;5105572;28;20050;-95
2023/09/26 00:41:12;;;;;;;2.72;1.15;;;;;;;17.88;99.68;99056.13;5103814;28;20581;-94
2023/09/26 00:43:38;;;;;;;3.95;1.25;;;;;;;17.72;98.82;99021.09;5104754;28;20044;-93
2023/09/26 00:46:06;;;;;;;2.42;1.13;;;;;;;17.50;99.83;99009.69;5104533;28;20085;-95
2023/09/26 00:48:33;;;;;;;1.98;1.00;;;;;;;17.56;99.67;99012.06;5105338;28;20044;-93
2023/09/26 00:51:00;;;;;;;2.40;1.25;;;;;;;17.57;99.35;99019.19;5100783;28;20044;-96
2023/09/26 00:53:27;;;;;;;1.88;1.23;;;;;;;17.28;100.00;98996.47;5101391;28;20044;-94
2023/09/26 00:55:55;;;;;;;6.18;0.98;;;;;;;17.17;100.00;99000.56;5104324;28;20097;-95
2023/09/26 00:58:22;;;;;;;2.83;1.00;;;;;;;17.19;100.00;98998.66;5103248;28;20064;-93
2023/09/26 01:00:49;;;;;;;1.95;1.02;;;;;;;17.19;100.00;98985.22;5105912;28;20048;-96
2023/09/26 01:03:16;;;;;;;1.83;1.33;;;;;;;17.19;100.00;98987.91;5100294;28;20072;-95
2023/09/26 01:05:43;;;;;;;1.92;1.02;;;;;;;17.37;100.00;98979.88;5105354;28;20040;-94
2023/09/26 01:08:09;;;;;;;4.10;1.23;;;;;;;17.70;100.00;99022.97;5103765;28;20439;-95
2023/09/26 01:10:36;;;;;;;3.25;1.20;;;;;;;17.21;100.00;98985.16;5104571;28;20040;-95
2023/09/26 01:13:03;;;;;;;4.00;1.20;;;;;;;17.21;100.00;98974.41;5102194;28;20040;-94
2023/09/26 01:15:36;;;;;;;2.60;1.30;;;;;;;17.43;100.00;99007.31;5095865;28;20139;-94
2023/09/26 01:18:03;;;;;;;2.53;1.17;;;;;;;17.48;100.00;99008.88;5093640;28;20041;-91
2023/09/26 01:20:29;;;;;;;2.80;1.10;;;;;;;17.54;100.00;99030.94;5099153;28;20085;-95
2023/09/26 01:22:57;;;;;;;3.88;1.20;;;;;;;17.34;100.00;98991.66;5101544;28;20056;-93
2023/09/26 01:25:24;;;;;;;2.35;1.15;;;;;;;17.59;100.00;99049.56;5104627;28;20500;-95
2023/09/26 01:27:50;;;;;;;2.25;0.95;;;;;;;17.58;100.00;99031.66;5096197;28;20048;-95
2023/09/26 01:30:16;;;;;;;4.75;1.20;;;;;;;17.47;100.00;98993.72;5100208;27;20093;-95
2023/09/26 01:32:42;;;;;;;2.05;1.30;;;;;;;17.13;100.00;98947.06;5108280;28;20573;-95
2023/09/26 01:35:09;;;;;;;2.08;1.00;;;;;;;17.34;100.00;98994.34;5109912;27;20084;-93
2023/09/26 01:37:34;;;;;;;2.92;1.20;;;;;;;17.18;100.00;98971.91;5107723;28;20085;-94
2023/09/26 01:40:00;;;;;;;4.32;1.25;;;;;;;17.32;100.00;98974.72;5104158;28;20047;-93
2023/09/26 01:42:28;;;;;;;2.80;0.90;;;;;;;17.36;100.00;98962.88;5100953;28;20046;-94
2023/09/26 01:44:54;;;;;;;1.25;0.90;;;;;;;17.60;100.00;99003.75;5103013;28;20050;-93
2023/09/26 01:47:30;;;;;;;2.80;1.10;;;;;;;17.61;100.00;99008.19;5104119;28;20040;-94
2023/09/26 01:49:57;;;;;;;5.75;1.92;;;;;;;17.33;100.00;98964.88;5107305;28;20051;-94
2023/09/26 01:52:23;;;;;;;1.95;1.30;;;;;;;17.58;100.00;99015.53;5104810;28;20070;-95
2023/09/26 01:54:49;;;;;;;1.90;1.20;;;;;;;17.64;100.00;99031.38;5105845;27;20075;-94
2023/09/26 01:57:15;;;;;;;2.28;1.10;;;;;;;17.56;100.00;99028.19;5105137;28;20047;-93
2023/09/26 01:59:43;;;;;;;2.72;1.30;;;;;;;17.59;100.00;99036.97;5104639;27;20070;-94
2023/09/26 02:02:09;;;;;;;5.45;1.20;;;;;;;17.61;100.00;99037.78;5101618;28;20489;-94
2023/09/26 02:04:35;;;;;;;3.10;1.23;;;;;;;17.08;100.00;98968.78;5102032;28;20092;-94
2023/09/26 02:07:01;;;;;;;2.25;1.30;;;;;;;17.22;100.00;99003.06;5104198;27;20492;-94
2023/09/26 02:09:27;;;;;;;3.83;1.38;;;;;;;17.33;100.00;99024.88;5101199;28;20043;-94
2023/09/26 02:11:53;;;;;;;4.43;1.50;;;;;;;17.10;100.00;98995.59;5103403;28;20043;-95
2023/09/26 02:14:19;;;;;;;3.45;1.15;;;;;;;16.94;100.00;98988.31;5103927;28;20044;-93
2023/09/26 02:16:46;;;;;;;3.10;1.20;;;;;;;17.16;100.00;98993.47;5102943;27;20042;-94
2023/09/26 02:19:12;;;;;;;2.30;1.13;;;;;;;17.17;100.00;98989.81;5105749;28;20043;-95
2023/09/26 02:21:38;;;;;;;2.65;1.00;;;;;;;17.45;100.00;99015.28;5107442;28;20051;-94
2023/09/26 02:24:04;;;;;;;1.40;1.10;;;;;;;17.16;100.00;98987.22;5118384;28;20105;-94
2023/09/26 02:26:30;;;;;;;3.20;1.15;;;;;;;17.36;100.00;99053.41;5089115;28;20047;-93
2023/09/26 02:28:56;;;;;;;3.08;0.80;;;;;;;17.23;100.00;99004.78;5097551;28;20044;-94
2023/09/26 02:31:22;;;;;;;4.90;1.30;;;;;;;17.02;100.00;99028.19;5091988;28;20035;-93
2023/09/26 02:33:49;;;;;;;3.13;1.13;;;;;;;16.96;100.00;98986.41;5103984;28;20043;-93
2023/09/26 02:36:15;;;;;;;2.70;1.23;;;;;;;16.79;100.00;98968.41;5102804;28;20051;-94
2023/09/26 02:38:41;;;;;;;3.42;1.63;;;;;;;16.84;100.00;98954.78;5102142;28;20032;-94
2023/09/26 02:41:07;;;;;;;3.05;1.45;;;;;;;16.92;100.00;98978.59;5101629;28;20047;-95
2023/09/26 02:43:33;;;;;;;2.13;1.10;;;;;;;17.32;100.00;99058.06;5101269;28;20075;-94
2023/09/26 02:45:59;;;;;;;2.38;1.10;;;;;;;16.93;100.00;98993.75;5099631;28;20061;-95
2023/09/26 02:48:24;;;;;;;5.15;1.75;;;;;;;17.05;100.00;99020.00;5101576;28;20517;-96
2023/09/26 02:50:52;;;;;;;1.65;0.90;;;;;;;16.83;100.00;99037.19;5100719;28;20050;-94
2023/09/26 02:53:18;;;;;;;1.50;0.88;;;;;;;16.81;100.00;99043.56;5100040;28;20043;-95
2023/09/26 02:55:43;;;;;;;4.30;1.20;;;;;;;16.10;100.00;98963.66;5101016;28;20036;-95
2023/09/26 02:58:09;;;;;;;2.92;1.50;;;;;;;16.20;100.00;99002.53;5101541;28;20403;-94
2023/09/26 03:00:35;;;;;;;3.55;1.38;;;;;;;16.29;100.00;98990.50;5101238;28;20085;-95
2023/09/26 03:03:01;;;;;;;2.70;1.10;;;;;;;16.57;100.00;99042.91;5101296;28;20118;-94
2023/09/26 03:05:28;;;;;;;2.47;1.00;;;;;;;16.44;100.00;99053.34;5101104;28;20032;-95
2023/09/26 03:07:55;;;;;;;2.72;0.90;;;;;;;16.08;100.00;99000.41;5101010;28;20044;-94
2023/09/26 03:10:21;;;;;;;2.03;1.00;;;;;;;15.76;100.00;98985.78;5100790;28;20042;-95
2023/09/26 03:12:48;;;;;;;2.05;1.02;;;;;;;16.35;100.00;99051.94;5099510;28;20036;-96
2023/09/26 03:15:14;;;;;;;2.60;1.38;;;;;;;15.83;100.00;99032.84;5096339;28;20092;-94
2023/09/26 03:17:40;;;;;;;2.38;1.10;;;;;;;15.73;100.00;99007.38;5099549;28;20066;-95
2023/09/26 03:20:08;;;;;;;3.15;1.23;;;;;;;15.68;100.00;98967.34;5099102;28;20036;-94
2023/09/26 03:22:34;;;;;;;4.00;1.05;;;;;;;16.05;100.00;99024.72;5110260;28;20047;-95
2023/09/26 03:25:02;;;;;;;4.63;1.30;;;;;;;15.93;100.00;99025.25;5112799;28;20096;-93
2023/09/26 03:27:28;;;;;;;4.18;1.48;;;;;;;16.04;100.00;99038.19;5123440;28;20039;-95
2023/09/26 03:29:54;;;;;;;1.75;1.20;;;;;;;15.97;100.00;99034.91;5118874;28;20057;-96
2023/09/26 03:32:20;;;;;;;3.75;1.35;;;;;;;15.58;100.00;98976.72;5123377;28;20039;-95
2023/09/26 03:34:46;;;;;;;3.40;1.20;;;;;;;16.15;100.00;99026.00;5132259;28;20070;-94
2023/09/26 03:37:12;;;;;;;2.13;1.35;;;;;;;15.39;100.00;98937.31;5130628;28;20040;-95
2023/09/26 03:39:38;;;;;;;3.92;1.27;;;;;;;15.56;100.00;98958.00;5136081;28;20104;-95
2023/09/26 03:42:06;;;;;;;3.25;1.77;;;;;;;15.50;100.00;98958.28;5126232;28;20043;-93
2023/09/26 03:44:32;;;;;;;5.05;1.20;;;;;;;16.02;100.00;99009.59;5127664;28;20051;-94
2023/09/26 03:46:58;;;;;;;3.15;1.13;;;;;;;15.70;100.00;98943.13;5123515;28;20039;-95
2023/09/26 03:49:24;;;;;;;2.28;1.38;;;;;;;15.56;100.00;98951.78;5122602;28;20053;-94
2023/09/26 03:51:49;;;;;;;3.55;1.45;;;;;;;15.85;100.00;98982.66;5125532;27;20134;-95
2023/09/26 03:54:16;;;;;;;2.97;1.23;;;;;;;15.92;100.00;98968.06;5131300;27;20046;-95
2023/09/26 03:56:42;;;;;;;4.47;1.77;;;;;;;15.80;100.00;98956.06;5108590;28;20042;-94
2023/09/26 03:59:12;;;;;;;3.58;1.50;;;;;;;15.92;100.00;98959.16;5110271;28;20043;-94
2023/09/26 04:01:37;;;;;;;3.33;1.25;;;;;;;16.02;100.00;98977.41;5117182;28;20042;-94
2023/09/26 04:04:04;;;;;;;4.28;1.95;;;;;;;16.15;100.00;99017.09;5111043;28;20403;-94
2023/09/26 04:06:31;;;;;;;3.78;1.15;;;;;;;16.22;100.00;99013.19;5122283;28;20047;-94
2023/09/26 04:08:57;;;;;;;5.35;1.45;;;;;;;15.64;100.00;98930.00;5126968;27;20043;-95
2023/09/26 04:11:23;;;;;;;3.40;1.85;;;;;;;15.96;100.00;98971.44;5124383;27;20396;-95
2023/09/26 04:13:49;;;;;;;4.63;1.48;;;;;;;16.20;100.00;99005.22;5125130;27;20092;-95
2023/09/26 04:16:16;;;;;;;4.32;1.20;;;;;;;16.25;100.00;98996.09;5139950;27;20053;-94
2023/09/26 04:18:44;;;;;;;3.67;1.50;;;;;;;16.07;100.00;98974.53;5126546;27;20528;-95
2023/09/26 04:21:10;;;;;;;2.53;1.30;;;;;;;16.30;100.00;98984.19;5123760;27;20059;-94
2023/09/26 04:23:36;;;;;;;3.60;1.50;;;;;;;16.06;100.00;98924.50;5137194;27;20050;-95
2023/09/26 04:26:09;;;;;;;2.05;1.30;;;;;;;16.08;100.00;98921.75;5128062;27;20039;-94
2023/09/26 04:28:35;;;;;;;3.10;1.30;;;;;;;16.75;100.00;98998.19;5125477;27;20041;-95
2023/09/26 04:31:01;;;;;;;3.95;1.50;;;;;;;16.61;100.00;98958.53;5124957;27;20039;-94
2023/09/26 04:33:28;;;;;;;2.00;0.95;;;;;;;16.84;100.00;98966.38;5143259;27;20050;-96
2023/09/26 04:35:57;;;;;;;3.80;1.52;;;;;;;17.02;100.00;98987.91;5128330;27;20053;-93
2023/09/26 04:38:23;;;;;;;3.95;1.40;;;;;;;16.80;100.00;98937.06;5134719;27;20061;-96
2023/09/26 04:40:49;;;;;;;3.25;1.25;;;;;;;16.66;100.00;98916.25;5127313;27;20503;-94
2023/09/26 04:43:15;;;;;;;3.83;1.23;;;;;;;17.12;100.00;98981.13;5131978;27;20042;-95
2023/09/26 04:45:41;;;;;;;2.40;1.30;;;;;;;16.96;100.00;98954.19;5139768;27;20046;-94
2023/09/26 04:48:07;;;;;;;4.55;1.40;;;;;;;16.79;100.00;98890.53;5126352;27;20067;-95
2023/09/26 04:50:34;;;;;;;2.38;1.15;;;;;;;16.82;100.00;98890.38;5125206;27;20095;-95
2023/09/26 04:53:00;;;;;;;5.10;1.30;;;;;;;16.91;100.00;98904.31;5143741;27;20046;-94
2023/09/26 04:55:27;;;;;;;2.75;1.35;;;;;;;16.98;100.00;98909.28;5125394;27;20045;-94
2023/09/26 04:57:53;;;;;;;3.30;1.30;;;;;;;17.34;100.00;98980.03;5115929;27;20043;-95
2023/09/26 05:00:19;;;;;;;4.63;1.58;;;;;;;16.88;100.00;98928.66;5127874;27;20039;-96
2023/09/26 05:02:49;;;;;;;3.92;1.40;;;;;;;17.11;100.00;98951.63;5121715;27;20040;-95
2023/09/26 05:05:15;;;;;;;4.20;1.85;;;;;;;16.73;100.00;98900.69;5120212;28;20071;-94
2023/09/26 05:07:43;;;;;;;3.72;1.40;;;;;;;16.45;100.00;98890.47;5113478;27;20070;-94
2023/09/26 05:10:09;;;;;;;4.18;1.33;;;;;;;16.53;100.00;98897.19;5127540;27;20500;-94
2023/09/26 05:12:40;;;;;;;3.42;1.80;;;;;;;16.41;100.00;98887.03;5122200;27;20031;-94
2023/09/26 05:15:09;;;;;;;4.28;1.10;;;;;;;16.72;100.00;98891.78;5108906;27;20134;-95
2023/09/26 05:17:35;;;;;;;3.05;1.27;;;;;;;16.69;100.00;98880.31;5128443;27;20111;-95
2023/09/26 05:20:02;;;;;;;3.42;1.20;;;;;;;16.75;100.00;98888.94;5131596;27;20050;-96
2023/09/26 05:22:28;;;;;;;5.32;1.38;;;;;;;16.95;100.00;98893.31;5115594;28;20051;-95
2023/09/26 05:24:56;;;;;;;4.57;1.50;;;;;;;16.89;100.00;98880.19;5111401;28;20048;-96
2023/09/26 05:27:22;;;;;;;4.60;1.35;;;;;;;17.03;100.00;98885.75;5111272;28;20047;-95
2023/09/26 05:29:48;;;;;;;3.80;1.55;;;;;;;17.00;100.00;98903.81;5104454;28;20043;-95
2023/09/26 05:32:14;;;;;;;6.80;1.65;;;;;;;17.02;100.00;98880.44;5106962;28;20047;-95
2023/09/26 05:34:43;;;;;;;4.95;1.58;;;;;;;17.26;100.00;98918.59;5107440;28;20047;-95
2023/09/26 05:37:15;;;;;;;5.88;1.50;;;;;;;16.96;100.00;98873.59;5106083;28;20063;-95
2023/09/26 05:39:42;;;;;;;3.55;1.23;;;;;;;17.22;100.00;98879.44;5108823;28;20066;-94
2023/09/26 05:42:10;;;;;;;2.90;1.20;;;;;;;17.77;100.00;98913.25;5106783;28;20036;-95
2023/09/26 05:44:36;;;;;;;3.22;1.20;;;;;;;17.58;100.00;98873.03;5106262;28;20096;-95
2023/09/26 05:47:02;;;;;;;2.75;1.10;;;;;;;17.72;100.00;98939.50;5104377;28;20039;-95
2023/09/26 05:49:28;;;;;;;2.55;1.23;;;;;;;17.73;100.00;98907.16;5105520;28;20500;-95
2023/09/26 05:51:54;;;;;;;4.80;1.25;;;;;;;17.58;100.00;98900.78;5105058;28;20064;-95
2023/09/26 05:54:20;;;;;;;2.28;1.15;;;;;;;18.00;100.00;98946.97;5105849;28;20046;-93
2023/09/26 05:56:45;;;;;;;2.53;1.15;;;;;;;18.02;100.00;98951.34;5098373;28;20044;-92
2023/09/26 05:59:13;;;;;;;4.75;1.60;;;;;;;17.84;100.00;98933.50;5102437;28;20047;-94
2023/09/26 06:01:39;;;;;;;2.95;1.60;;;;;;;17.68;100.00;98898.47;5100553;28;20127;-96
2023/09/26 06:04:06;;;;;;;3.53;1.60;;;;;;;17.91;100.00;98910.69;5111691;28;20404;-96
2023/09/26 06:06:32;;;;;;;6.30;1.65;;;;;;;17.91;100.00;98893.69;5111498;28;20081;-95
2023/09/26 06:08:59;;;;;;;4.85;1.55;;;;;;;17.85;100.00;98892.22;5111094;28;20111;-95
2023/09/26 06:11:25;;;;;;;4.07;1.60;;;;;;;17.92;100.00;98881.97;5109856;28;20050;-96
2023/09/26 06:13:52;;;;;;;1.85;1.20;;;;;;;18.09;100.00;98891.81;5111720;28;20040;-95
2023/09/26 06:16:22;;;;;;;3.00;1.42;;;;;;;18.76;100.00;98979.53;5113513;28;20067;-96
2023/09/26 06:18:49;;;;;;;5.70;1.38;;;;;;;18.43;100.00;98932.03;5114543;28;20043;-96
2023/09/26 06:21:15;;;;;;;3.53;1.42;;;;;;;18.37;100.00;98913.53;5115694;27;20077;-95
2023/09/26 06:23:41;;;;;;;1.90;1.02;;;;;;;18.25;100.00;98893.53;5131971;27;20051;-95
2023/09/26 06:26:07;;;;;;;2.60;1.90;;;;;;;18.60;100.00;98908.63;5130922;27;20027;-94
2023/09/26 06:28:34;;;;;;;3.75;1.35;;;;;;;18.54;100.00;98908.97;5131441;27;20047;-95
2023/09/26 06:31:04;;;;;;;3.50;1.48;;;;;;;18.88;100.00;98924.09;5130730;27;20082;-95
2023/09/26 06:33:35;;;;;;;3.28;1.48;;;;;;;18.72;100.00;98897.16;5128589;27;20062;-96
2023/09/26 06:36:01;;;;;;;3.85;1.50;;;;;;;18.76;100.00;98895.13;5129871;27;20495;-96
2023/09/26 06:38:28;;;;;;;4.10;1.73;;;;;;;19.07;100.00;98953.53;5130232;27;20054;-94
2023/09/26 06:41:07;;;;;;;4.32;1.45;;;;;;;18.87;100.00;98917.00;5126859;27;20067;-95
2023/09/26 06:43:40;;;;;;;5.75;1.92;;;;;;;18.68;100.00;98885.69;5128047;27;20077;-94
2023/09/26 06:46:15;;;;;;;4.40;1.65;;;;;;;19.15;100.00;98902.75;5127717;27;20066;-95
2023/09/26 06:48:44;;;;;;;4.95;1.42;;;;;;;19.34;100.00;98891.69;5128248;27;20050;-93
2023/09/26 06:51:11;;;;;;;4.75;2.25;;;;;;;19.32;100.00;98928.66;5129484;27;20562;-96
2023/09/26 06:53:37;;;;;;;2.33;1.52;;;;;;;19.02;100.00;98894.50;5129632;27;20150;-95
2023/09/26 06:56:05;;;;;;;2.97;1.27;;;;;;;19.48;100.00;98897.09;5128402;27;20066;-96
2023/09/26 06:58:32;;;;;;;4.88;1.60;;;;;;;19.69;100.00;98910.22;5126900;27;20107;-93
2023/09/26 07:00:59;;;;;;;3.35;1.52;;;;;;;20.26;98.49;98957.97;5127657;27;20043;-96
2023/09/26 07:03:27;;;;;;;3.65;2.00;;;;;;;20.09;98.11;98932.91;5128304;27;20408;-95
2023/09/26 07:05:55;;;;;;;3.08;1.15;;;;;;;20.45;96.46;98971.16;5129537;27;20129;-95
2023/09/26 07:08:21;;;;;;;2.80;1.27;;;;;;;19.87;96.69;98908.25;5127459;27;20039;-95
2023/09/26 07:10:47;;;;;;;4.30;2.35;;;;;;;19.98;94.78;98894.94;5126950;27;20053;-94
2023/09/26 07:13:27;;;;;;;5.00;1.80;;;;;;;20.13;95.37;98885.00;5127676;27;20531;-96
2023/09/26 07:15:58;;;;;;;3.38;1.67;;;;;;;20.57;94.06;98947.91;5128421;27;20039;-95
2023/09/26 07:18:25;;;;;;;5.30;1.50;;;;;;;20.86;93.59;98951.41;5128767;27;20064;-94
2023/09/26 07:20:51;;;;;;;5.35;1.63;;;;;;;20.73;92.84;98908.09;5126527;28;20043;-95
2023/09/26 07:23:19;;;;;;;2.20;1.38;;;;;;;20.97;86.14;98911.03;5106646;28;20081;-96
2023/09/26 07:25:45;;;;;;;5.35;1.75;;;;;;;21.34;85.85;98949.09;5105674;28;20051;-96
2023/09/26 07:28:11;;;;;;;6.90;1.80;;;;;;;20.59;86.12;98913.56;5102377;28;20043;-94
2023/09/26 07:30:37;;;;;;;3.45;1.55;;;;;;;21.01;86.15;98906.25;5104778;28;20116;-96
2023/09/26 07:33:04;;;;;;;7.22;2.10;;;;;;;21.43;83.08;98951.19;5093809;28;20040;-96
2023/09/26 07:35:30;;;;;;;4.32;1.80;;;;;;;21.33;80.59;98925.69;5103405;28;20135;-96
2023/09/26 07:37:57;;;;;;;3.85;1.75;;;;;;;21.52;80.50;98944.28;5118284;28;20073;-95
2023/09/26 07:40:25;;;;;;;3.30;1.50;;;;;;;21.57;80.11;98963.75;5111384;28;20068;-95
2023/09/26 07:42:51;;;;;;;4.03;1.65;;;;;;;21.70;78.54;98944.81;5117606;27;20043;-95
2023/09/26 07:45:19;;;;;;;4.43;1.75;;;;;;;21.28;79.18;98915.19;5112060;28;20069;-96
2023/09/26 07:47:45;;;;;;;3.28;1.80;;;;;;;21.59;79.15;98967.22;5105946;28;20048;-95
2023/09/26 07:50:11;;;;;;;5.78;2.10;;;;;;;21.52;79.27;98920.78;5108166;28;20060;-95
2023/09/26 07:52:38;;;;;;;5.70;1.90;;;;;;;21.37;80.17;98904.72;5110649;28;20036;-95
2023/09/26 07:55:07;;;;;;;4.65;2.00;;;;;;;21.64;76.43;98937.13;5110558;28;20036;-95
2023/09/26 07:57:34;;;;;;;4.07;1.90;;;;;;;21.96;77.13;98924.03;5117647;28;20138;-95
2023/09/26 08:00:03;;;;;;;3.63;2.33;;;;;;;22.49;74.98;98964.50;5109341;28;20048;-96
2023/09/26 08:02:31;;;;;;;4.32;1.98;;;;;;;21.93;75.29;98906.16;5110629;28;20043;-95
2023/09/26 08:04:58;;;;;;;3.92;2.78;;;;;;;22.11;75.17;98898.53;5119739;27;20458;-96
2023/09/26 08:07:24;;;;;;;4.72;2.35;;;;;;;22.76;72.06;98965.16;5116062;28;20035;-95
2023/09/26 08:09:50;;;;;;;3.30;2.35;;;;;;;22.62;72.86;98961.75;5111988;28;20120;-94
2023/09/26 08:12:16;;;;;;;3.35;1.55;;;;;;;22.42;70.74;98901.75;5109273;28;20051;-95
2023/09/26 08:14:44;;;;;;;4.03;2.13;;;;;;;22.63;71.36;98953.50;5111571;28;20143;-95
2023/09/26 08:17:19;;;;;;;5.55;1.90;;;;;;;22.12;71.09;98912.94;5109168;28;20326;-95
2023/09/26 08:19:45;;;;;;;5.15;2.35;;;;;;;22.45;71.30;98988.25;5124488;27;20070;-96
2023/09/26 08:22:11;;;;;;;6.47;1.95;;;;;;;22.30;70.53;98899.97;5131533;27;20059;-95
2023/09/26 08:24:39;;;;;;;4.90;2.15;;;;;;;22.67;68.61;98903.50;5125690;27;20043;-95
2023/09/26 08:27:05;;;;;;;7.00;2.58;;;;;;;22.90;67.15;98945.19;5112473;28;20048;-95
2023/09/26 08:29:31;;;;;;;7.13;2.65;;;;;;;22.68;69.68;98981.13;5107350;28;20027;-92
2023/09/26 08:32:01;;;;;;;3.03;2.30;;;;;;;22.48;69.70;98931.09;5107768;28;20050;-96
2023/09/26 08:34:28;;;;;;;4.97;2.58;;;;;;;22.98;68.84;98979.84;5109308;28;20050;-94
2023/09/26 08:36:59;;;;;;;4.05;2.40;;;;;;;22.49;67.78;98897.63;5107075;28;20050;-96
2023/09/26 08:39:25;;;;;;;4.93;2.60;;;;;;;22.79;67.45;98923.41;5104828;28;20523;-94
2023/09/26 08:41:51;;;;;;;4.75;2.30;;;;;;;22.65;68.96;98931.72;5103333;28;20044;-93
2023/09/26 08:44:16;;;;;;;4.80;2.72;;;;;;;22.98;68.21;98955.44;5103163;28;20496;-96
2023/09/26 08:46:45;;;;;;;6.15;2.60;;;;;;;23.21;67.58;98913.03;5103632;28;20082;-96
2023/09/26 08:49:13;;;;;;;4.75;3.47;;;;;;;23.27;66.38;98976.81;5103685;28;20455;-96
2023/09/26 08:51:39;;;;;;;4.80;2.72;;;;;;;23.34;66.20;98964.50;5103340;28;20042;-95
2023/09/26 08:54:05;;;;;;;4.55;3.22;;;;;;;23.92;66.14;98999.88;5101709;28;20134;-94
2023/09/26 08:56:33;;;;;;;5.68;2.55;;;;;;;23.66;65.07;98909.56;5102711;27;20105;-95
2023/09/26 08:59:05;;;;;;;6.05;3.45;;;;;;;23.07;65.85;98889.66;5106995;28;20051;-96
2023/09/26 09:01:31;;;;;;;4.88;2.65;;;;;;;23.61;64.24;98928.94;5105115;28;20409;-96
2023/09/26 09:03:57;;;;;;;8.05;2.90;;;;;;;23.38;64.27;98898.16;5103568;28;20042;-96
2023/09/26 09:06:25;;;;;;;7.18;2.90;;;;;;;24.09;62.58;98931.47;5102623;28;20036;-96
2023/09/26 09:09:05;;;;;;;5.38;3.05;;;;;;;24.21;63.14;98981.28;5104223;28;20044;-96
2023/09/26 09:11:33;;;;;;;4.50;2.70;;;;;;;23.98;63.00;98928.75;5098368;28;20030;-95
2023/09/26 09:13:59;;;;;;;4.30;2.92;;;;;;;24.02;63.02;98959.28;5101606;28;20048;-95
2023/09/26 09:16:25;;;;;;;5.35;3.55;;;;;;;23.75;64.67;98968.59;5101288;28;20172;-96
2023/09/26 09:18:57;;;;;;;5.97;3.03;;;;;;;23.93;63.25;98963.59;5102770;28;20086;-95
2023/09/26 09:21:27;;;;;;;6.90;2.92;;;;;;;24.14;63.35;98925.69;5102152;27;20078;-95
2023/09/26 09:23:55;;;;;;;5.88;2.97;;;;;;;24.54;62.16;98982.28;5124228;27;20130;-96
2023/09/26 09:26:22;;;;;;;5.03;3.40;;;;;;;24.65;62.31;98970.53;5120651;27;20404;-95
2023/09/26 09:28:49;;;;;;;5.88;3.53;;;;;;;24.79;62.22;98968.41;5121506;27;20039;-96
2023/09/26 09:31:18;;;;;;;7.25;3.25;;;;;;;24.55;61.62;98956.84;5120682;27;20035;-96
2023/09/26 09:33:45;;;;;;;6.32;3.65;;;;;;;24.77;60.79;98932.31;5122158;27;20047;-96
2023/09/26 09:36:12;;;;;;;6.72;3.10;;;;;;;25.18;60.29;98974.22;5119806;27;20043;-95
2023/09/26 09:38:40;;;;;;;7.75;3.22;;;;;;;25.16;60.71;98959.03;5120054;27;20549;-95
2023/09/26 09:41:06;;;;;;;6.55;3.42;;;;;;;25.20;59.67;98958.66;5121598;27;20039;-95
2023/09/26 09:43:33;;;;;;;5.88;3.85;;;;;;;25.16;58.82;98962.63;5120545;27;20039;-94
2023/09/26 09:46:06;;;;;;;7.80;3.83;;;;;;;25.10;59.48;98907.84;5120694;27;20407;-96
2023/09/26 09:48:41;;;;;;;5.07;3.38;;;;;;;24.90;60.53;98942.19;5121591;27;20050;-96
2023/09/26 09:51:09;;;;;;;6.43;3.55;;;;;;;24.74;60.23;98926.25;5120179;27;20039;-95
2023/09/26 09:53:35;;;;;;;7.78;3.33;;;;;;;25.06;60.07;98955.34;5125851;27;20042;-96
2023/09/26 09:56:06;;;;;;;5.68;2.90;;;;;;;24.56;61.80;98896.03;5120352;27;20039;-94
2023/09/26 09:58:33;;;;;;;8.02;3.53;;;;;;;24.76;60.97;98897.94;5119126;27;20031;-96
2023/09/26 10:01:00;;;;;;;6.10;3.22;;;;;;;24.32;61.79;98891.56;5119250;27;20047;-94
2023/09/26 10:03:29;;;;;;;6.65;3.15;;;;;;;24.14;63.22;98885.81;5119408;27;20039;-95
2023/09/26 10:05:57;;;;;;;5.30;4.18;;;;;;;24.82;62.70;98952.81;5119108;27;20385;-94
2023/09/26 10:08:24;;;;;;;5.72;3.65;;;;;;;24.69;61.62;98898.59;5120998;27;20034;-95
2023/09/26 10:10:50;;;;;;;5.25;2.80;;;;;;;24.92;60.61;98916.56;5120290;27;20046;-95
2023/09/26 10:13:18;;;;;;;4.63;2.95;;;;;;;24.59;62.06;98918.41;5122648;27;20122;-91
2023/09/26 10:16:05;;;;;;;6.50;3.72;;;;;;;23.94;62.83;98901.00;5119777;27;20043;-96
2023/09/26 10:18:35;;;;;;;5.05;3.75;;;;;;;24.41;61.49;98928.00;5121236;27;20437;-95
2023/09/26 10:21:01;;;;;;;5.25;2.95;;;;;;;24.26;63.17;98918.41;5125192;27;20058;-95
2023/09/26 10:23:27;;;;;;;5.68;3.58;;;;;;;23.76;62.75;98853.56;5124098;27;20039;-94
2023/09/26 10:25:54;;;;;;;6.32;2.67;;;;;;;24.83;61.74;98946.38;5119825;27;20043;-94
2023/09/26 10:28:21;;;;;;;9.88;3.53;;;;;;;24.59;60.32;98872.16;5120135;27;20043;-95
2023/09/26 10:30:55;;;;;;;6.07;3.05;;;;;;;24.39;60.22;98865.63;5120065;27;20116;-92
2023/09/26 10:33:21;;;;;;;8.25;3.13;;;;;;;24.82;59.14;98876.66;5122065;27;20054;-94
2023/09/26 10:35:47;;;;;;;7.43;4.03;;;;;;;24.95;58.51;98871.91;5120559;27;20412;-93
2023/09/26 10:38:18;;;;;;;5.78;3.58;;;;;;;25.16;58.57;98916.34;5119952;27;20027;-96
2023/09/26 10:40:45;;;;;;;6.72;3.45;;;;;;;25.33;58.15;98944.88;5118871;27;20496;-96
2023/09/26 10:43:11;;;;;;;6.32;3.40;;;;;;;24.96;56.97;98857.31;5122869;27;20495;-95
2023/09/26 10:45:42;;;;;;;7.28;3.75;;;;;;;24.80;57.66;98912.16;5119476;27;20080;-95
2023/09/26 10:48:08;;;;;;;5.65;3.42;;;;;;;24.86;57.47;98905.34;5121474;27;20129;-94
2023/09/26 10:50:34;;;;;;;6.38;3.45;;;;;;;24.90;58.20;98904.09;5124245;27;20111;-94
2023/09/26 10:53:00;;;;;;;6.47;3.80;;;;;;;24.98;57.79;98872.53;5125558;27;20035;-95
2023/09/26 10:55:26;;;;;;;4.60;3.33;;;;;;;24.97;57.69;98908.00;5124867;27;20107;-93
2023/09/26 10:57:52;;;;;;;9.05;3.88;;;;;;;24.62;58.49;98852.00;5106751;28;20078;-95
2023/09/26 11:00:19;;;;;;;6.05;3.28;;;;;;;25.40;57.18;98937.06;5108571;28;20063;-95
2023/09/26 11:02:48;;;;;;;6.18;3.60;;;;;;;25.52;56.69;98918.78;5120098;27;20043;-94
2023/09/26 11:05:16;;;;;;;6.47;3.53;;;;;;;25.35;57.50;98903.91;5128681;27;20043;-96
2023/09/26 11:07:44;;;;;;;5.25;3.17;;;;;;;25.55;56.09;98903.06;5126921;27;20043;-95
2023/09/26 11:10:15;;;;;;;6.22;3.55;;;;;;;25.39;55.51;98826.41;5124733;27;20047;-95
2023/09/26 11:12:44;;;;;;;5.68;3.53;;;;;;;25.31;57.79;98850.72;5126641;27;20108;-96
2023/09/26 11:15:11;;;;;;;6.72;3.55;;;;;;;25.72;57.00;98876.19;5124453;28;20039;-96
2023/09/26 11:17:38;;;;;;;8.95;3.38;;;;;;;25.57;56.45;98826.69;5125353;28;20119;-96
2023/09/26 11:20:15;;;;;;;6.90;4.15;;;;;;;24.97;59.37;98864.50;5122361;28;20138;-96
2023/09/26 11:22:47;;;;;;;6.38;3.45;;;;;;;24.56;58.73;98822.63;5112727;28;20040;-95
2023/09/26 11:25:15;;;;;;;7.32;3.22;;;;;;;24.76;59.13;98813.63;5108317;28;20070;-96
2023/09/26 11:27:42;;;;;;;6.47;3.92;;;;;;;24.89;58.70;98818.03;5110123;28;20404;-95
2023/09/26 11:30:12;;;;;;;5.65;3.65;;;;;;;25.16;58.62;98891.84;5104054;28;20051;-96